sensor_id;sensor_type;location;lat;lon;timestamp;P1;durP1;ratioP1;P2;durP2;ratioP2
44169;SDS011;29836;52.286;9.576;2023-03-14T00:00:32;3.42;;;1.20;;
44169;SDS011;29836;52.286;9.576;2023-03-14T00:02:57;2.08;;;1.05;;
44169;SDS011;29836;52.286;9.576;2023-03-14T00:05:23;2.55;;;1.00;;
44169;SDS011;29836;52.286;9.576;2023-03-14T00:07:48;4.95;;;1.65;;
44169;SDS011;29836;52.286;9.576;2023-03-14T00:10:14;4.72;;;1.27;;
44169;SDS011;29836;52.286;9.576;2023-03-14T00:12:40;3.33;;;1.15;;
44169;SDS011;29836;52.286;9.576;2023-03-14T00:15:07;3.08;;;1.00;;
44169;SDS011;29836;52.286;9.576;2023-03-14T00:17:34;2.75;;;1.35;;
44169;SDS011;29836;52.286;9.576;2023-03-14T00:20:00;4.97;;;1.23;;
44169;SDS011;29836;52.286;9.576;2023-03-14T00:22:33;7.05;;;1.38;;
44169;SDS011;29836;52.286;9.576;2023-03-14T00:24:59;2.30;;;0.90;;
44169;SDS011;29836;52.286;9.576;2023-03-14T00:27:25;2.42;;;1.10;;
44169;SDS011;29836;52.286;9.576;2023-03-14T00:29:51;2.78;;;1.13;;
44169;SDS011;29836;52.286;9.576;2023-03-14T00:32:16;3.53;;;1.30;;
44169;SDS011;29836;52.286;9.576;2023-03-14T00:34:42;4.13;;;1.58;;
44169;SDS011;29836;52.286;9.576;2023-03-14T00:37:07;2.22;;;1.20;;
44169;SDS011;29836;52.286;9.576;2023-03-14T00:39:33;1.95;;;1.00;;
44169;SDS011;29836;52.286;9.576;2023-03-14T00:41:58;2.55;;;1.10;;
44169;SDS011;29836;52.286;9.576;2023-03-14T00:44:24;3.53;;;0.90;;
44169;SDS011;29836;52.286;9.576;2023-03-14T00:46:50;2.20;;;1.27;;
44169;SDS011;29836;52.286;9.576;2023-03-14T00:49:15;2.90;;;1.10;;
44169;SDS011;29836;52.286;9.576;2023-03-14T00:51:41;6.13;;;1.90;;
44169;SDS011;29836;52.286;9.576;2023-03-14T00:54:07;4.38;;;1.40;;
44169;SDS011;29836;52.286;9.576;2023-03-14T00:56:32;5.10;;;1.60;;
44169;SDS011;29836;52.286;9.576;2023-03-14T00:58:58;5.57;;;2.13;;
44169;SDS011;29836;52.286;9.576;2023-03-14T01:01:23;5.00;;;1.80;;
44169;SDS011;29836;52.286;9.576;2023-03-14T01:03:53;6.05;;;1.83;;
44169;SDS011;29836;52.286;9.576;2023-03-14T01:06:21;2.50;;;1.40;;
44169;SDS011;29836;52.286;9.576;2023-03-14T01:08:49;5.65;;;1.55;;
44169;SDS011;29836;52.286;9.576;2023-03-14T01:11:18;7.70;;;2.00;;
44169;SDS011;29836;52.286;9.576;2023-03-14T01:13:48;4.20;;;1.52;;
44169;SDS011;29836;52.286;9.576;2023-03-14T01:16:15;7.03;;;1.48;;
44169;SDS011;29836;52.286;9.576;2023-03-14T01:18:41;5.82;;;1.58;;
44169;SDS011;29836;52.286;9.576;2023-03-14T01:21:21;9.52;;;1.77;;
44169;SDS011;29836;52.286;9.576;2023-03-14T01:23:53;4.47;;;1.83;;
44169;SDS011;29836;52.286;9.576;2023-03-14T01:26:21;8.80;;;1.92;;
44169;SDS011;29836;52.286;9.576;2023-03-14T01:28:48;7.25;;;1.63;;
44169;SDS011;29836;52.286;9.576;2023-03-14T01:31:16;2.88;;;1.25;;
44169;SDS011;29836;52.286;9.576;2023-03-14T01:33:42;3.88;;;2.13;;
44169;SDS011;29836;52.286;9.576;2023-03-14T01:36:08;7.25;;;1.80;;
44169;SDS011;29836;52.286;9.576;2023-03-14T01:38:36;3.33;;;1.42;;
44169;SDS011;29836;52.286;9.576;2023-03-14T01:41:03;7.25;;;1.77;;
44169;SDS011;29836;52.286;9.576;2023-03-14T01:43:29;5.55;;;1.60;;
44169;SDS011;29836;52.286;9.576;2023-03-14T01:51:15;7.78;;;2.63;;
44169;SDS011;29836;52.286;9.576;2023-03-14T01:53:52;5.95;;;1.23;;
44169;SDS011;29836;52.286;9.576;2023-03-14T01:56:22;5.65;;;2.00;;
44169;SDS011;29836;52.286;9.576;2023-03-14T01:58:48;6.28;;;1.92;;
44169;SDS011;29836;52.286;9.576;2023-03-14T02:01:17;4.13;;;1.85;;
44169;SDS011;29836;52.286;9.576;2023-03-14T02:03:49;7.57;;;2.67;;
44169;SDS011;29836;52.286;9.576;2023-03-14T02:08:47;9.05;;;2.60;;
44169;SDS011;29836;52.286;9.576;2023-03-14T02:11:14;6.78;;;3.08;;
44169;SDS011;29836;52.286;9.576;2023-03-14T02:13:40;3.47;;;1.20;;
44169;SDS011;29836;52.286;9.576;2023-03-14T02:16:07;8.98;;;2.42;;
44169;SDS011;29836;52.286;9.576;2023-03-14T02:18:33;9.35;;;2.38;;
44169;SDS011;29836;52.286;9.576;2023-03-14T02:21:00;5.75;;;1.88;;
44169;SDS011;29836;52.286;9.576;2023-03-14T02:23:44;3.90;;;1.27;;
44169;SDS011;29836;52.286;9.576;2023-03-14T02:28:49;6.28;;;2.28;;
44169;SDS011;29836;52.286;9.576;2023-03-14T02:31:15;8.65;;;3.00;;
44169;SDS011;29836;52.286;9.576;2023-03-14T02:33:41;5.15;;;1.40;;
44169;SDS011;29836;52.286;9.576;2023-03-14T02:36:09;4.03;;;1.80;;
44169;SDS011;29836;52.286;9.576;2023-03-14T02:38:50;5.57;;;1.77;;
44169;SDS011;29836;52.286;9.576;2023-03-14T02:41:23;7.20;;;3.10;;
44169;SDS011;29836;52.286;9.576;2023-03-14T02:43:48;5.15;;;1.77;;
44169;SDS011;29836;52.286;9.576;2023-03-14T02:46:16;1.90;;;1.20;;
44169;SDS011;29836;52.286;9.576;2023-03-14T02:48:48;5.75;;;2.33;;
44169;SDS011;29836;52.286;9.576;2023-03-14T02:51:21;6.40;;;2.33;;
44169;SDS011;29836;52.286;9.576;2023-03-14T02:53:48;10.02;;;2.95;;
44169;SDS011;29836;52.286;9.576;2023-03-14T02:56:14;9.43;;;1.65;;
44169;SDS011;29836;52.286;9.576;2023-03-14T02:58:40;5.13;;;1.40;;
44169;SDS011;29836;52.286;9.576;2023-03-14T03:01:05;5.68;;;2.53;;
44169;SDS011;29836;52.286;9.576;2023-03-14T03:03:31;9.13;;;2.05;;
44169;SDS011;29836;52.286;9.576;2023-03-14T03:05:57;6.40;;;2.72;;
44169;SDS011;29836;52.286;9.576;2023-03-14T03:08:23;5.18;;;1.80;;
44169;SDS011;29836;52.286;9.576;2023-03-14T03:10:51;4.75;;;1.25;;
44169;SDS011;29836;52.286;9.576;2023-03-14T03:13:17;3.65;;;1.30;;
44169;SDS011;29836;52.286;9.576;2023-03-14T03:15:44;4.72;;;1.55;;
44169;SDS011;29836;52.286;9.576;2023-03-14T03:18:10;6.38;;;1.95;;
44169;SDS011;29836;52.286;9.576;2023-03-14T03:20:36;5.88;;;1.33;;
44169;SDS011;29836;52.286;9.576;2023-03-14T03:23:02;7.70;;;2.00;;
44169;SDS011;29836;52.286;9.576;2023-03-14T03:25:29;12.23;;;2.92;;
44169;SDS011;29836;52.286;9.576;2023-03-14T03:27:56;12.00;;;2.10;;
44169;SDS011;29836;52.286;9.576;2023-03-14T03:30:22;8.23;;;2.13;;
44169;SDS011;29836;52.286;9.576;2023-03-14T03:32:47;4.07;;;1.60;;
44169;SDS011;29836;52.286;9.576;2023-03-14T03:35:13;4.60;;;2.00;;
44169;SDS011;29836;52.286;9.576;2023-03-14T03:37:40;3.90;;;1.70;;
44169;SDS011;29836;52.286;9.576;2023-03-14T03:40:06;7.53;;;1.60;;
44169;SDS011;29836;52.286;9.576;2023-03-14T03:42:32;5.93;;;1.38;;
44169;SDS011;29836;52.286;9.576;2023-03-14T03:44:59;3.75;;;1.27;;
44169;SDS011;29836;52.286;9.576;2023-03-14T03:47:25;2.45;;;1.27;;
44169;SDS011;29836;52.286;9.576;2023-03-14T03:49:51;3.85;;;1.05;;
44169;SDS011;29836;52.286;9.576;2023-03-14T03:52:16;4.03;;;0.77;;
44169;SDS011;29836;52.286;9.576;2023-03-14T03:54:42;3.60;;;1.30;;
44169;SDS011;29836;52.286;9.576;2023-03-14T03:57:07;4.10;;;0.90;;
44169;SDS011;29836;52.286;9.576;2023-03-14T03:59:33;4.13;;;1.33;;
44169;SDS011;29836;52.286;9.576;2023-03-14T04:01:58;3.35;;;1.13;;
44169;SDS011;29836;52.286;9.576;2023-03-14T04:04:24;5.50;;;1.50;;
44169;SDS011;29836;52.286;9.576;2023-03-14T04:06:50;2.42;;;0.93;;
44169;SDS011;29836;52.286;9.576;2023-03-14T04:09:15;2.85;;;1.10;;
44169;SDS011;29836;52.286;9.576;2023-03-14T04:11:41;4.68;;;1.77;;
44169;SDS011;29836;52.286;9.576;2023-03-14T04:14:06;6.22;;;1.83;;
44169;SDS011;29836;52.286;9.576;2023-03-14T04:16:32;6.07;;;1.50;;
44169;SDS011;29836;52.286;9.576;2023-03-14T04:18:58;1.65;;;1.17;;
44169;SDS011;29836;52.286;9.576;2023-03-14T04:21:23;3.67;;;1.00;;
44169;SDS011;29836;52.286;9.576;2023-03-14T04:23:49;2.60;;;0.88;;
44169;SDS011;29836;52.286;9.576;2023-03-14T04:26:15;3.38;;;0.70;;
44169;SDS011;29836;52.286;9.576;2023-03-14T04:28:41;4.13;;;1.33;;
44169;SDS011;29836;52.286;9.576;2023-03-14T04:31:11;0.85;;;0.60;;
44169;SDS011;29836;52.286;9.576;2023-03-14T04:33:38;3.22;;;1.17;;
44169;SDS011;29836;52.286;9.576;2023-03-14T04:36:04;1.10;;;0.80;;
44169;SDS011;29836;52.286;9.576;2023-03-14T04:38:31;2.47;;;1.00;;
44169;SDS011;29836;52.286;9.576;2023-03-14T04:40:57;5.72;;;1.20;;
44169;SDS011;29836;52.286;9.576;2023-03-14T04:43:24;0.50;;;0.50;;
44169;SDS011;29836;52.286;9.576;2023-03-14T04:45:50;4.40;;;0.90;;
44169;SDS011;29836;52.286;9.576;2023-03-14T04:48:16;2.22;;;0.98;;
44169;SDS011;29836;52.286;9.576;2023-03-14T04:50:42;5.20;;;1.80;;
44169;SDS011;29836;52.286;9.576;2023-03-14T04:53:07;2.33;;;0.80;;
44169;SDS011;29836;52.286;9.576;2023-03-14T04:55:33;8.13;;;1.42;;
44169;SDS011;29836;52.286;9.576;2023-03-14T04:57:59;6.38;;;1.50;;
44169;SDS011;29836;52.286;9.576;2023-03-14T05:00:25;1.15;;;0.80;;
44169;SDS011;29836;52.286;9.576;2023-03-14T05:02:50;2.90;;;1.15;;
44169;SDS011;29836;52.286;9.576;2023-03-14T05:05:16;3.75;;;1.48;;
44169;SDS011;29836;52.286;9.576;2023-03-14T05:07:41;6.93;;;1.55;;
44169;SDS011;29836;52.286;9.576;2023-03-14T05:10:08;3.78;;;1.15;;
44169;SDS011;29836;52.286;9.576;2023-03-14T05:12:34;1.42;;;1.00;;
44169;SDS011;29836;52.286;9.576;2023-03-14T05:15:00;4.20;;;1.65;;
44169;SDS011;29836;52.286;9.576;2023-03-14T05:17:25;3.95;;;1.00;;
44169;SDS011;29836;52.286;9.576;2023-03-14T05:19:51;2.60;;;1.08;;
44169;SDS011;29836;52.286;9.576;2023-03-14T05:22:16;3.53;;;0.85;;
44169;SDS011;29836;52.286;9.576;2023-03-14T05:24:42;3.60;;;0.90;;
44169;SDS011;29836;52.286;9.576;2023-03-14T05:27:07;1.58;;;1.10;;
44169;SDS011;29836;52.286;9.576;2023-03-14T05:29:33;3.17;;;1.67;;
44169;SDS011;29836;52.286;9.576;2023-03-14T05:31:58;5.15;;;0.93;;
44169;SDS011;29836;52.286;9.576;2023-03-14T05:34:24;5.28;;;1.60;;
44169;SDS011;29836;52.286;9.576;2023-03-14T05:36:49;2.85;;;1.15;;
44169;SDS011;29836;52.286;9.576;2023-03-14T05:39:15;7.53;;;1.02;;
44169;SDS011;29836;52.286;9.576;2023-03-14T05:41:40;3.60;;;0.80;;
44169;SDS011;29836;52.286;9.576;2023-03-14T05:44:06;2.50;;;1.08;;
44169;SDS011;29836;52.286;9.576;2023-03-14T05:46:33;7.68;;;1.48;;
44169;SDS011;29836;52.286;9.576;2023-03-14T05:49:01;7.50;;;1.10;;
44169;SDS011;29836;52.286;9.576;2023-03-14T05:51:27;2.70;;;1.05;;
44169;SDS011;29836;52.286;9.576;2023-03-14T05:53:52;1.85;;;1.10;;
44169;SDS011;29836;52.286;9.576;2023-03-14T05:56:18;3.13;;;1.27;;
44169;SDS011;29836;52.286;9.576;2023-03-14T05:58:43;5.13;;;1.20;;
44169;SDS011;29836;52.286;9.576;2023-03-14T06:01:09;3.97;;;1.02;;
44169;SDS011;29836;52.286;9.576;2023-03-14T06:03:35;5.95;;;1.15;;
44169;SDS011;29836;52.286;9.576;2023-03-14T06:06:00;3.42;;;1.20;;
44169;SDS011;29836;52.286;9.576;2023-03-14T06:08:26;3.00;;;1.20;;
44169;SDS011;29836;52.286;9.576;2023-03-14T06:10:52;3.50;;;1.30;;
44169;SDS011;29836;52.286;9.576;2023-03-14T06:13:17;7.18;;;1.00;;
44169;SDS011;29836;52.286;9.576;2023-03-14T06:15:43;4.47;;;1.10;;
44169;SDS011;29836;52.286;9.576;2023-03-14T06:18:09;4.15;;;1.30;;
44169;SDS011;29836;52.286;9.576;2023-03-14T06:20:38;4.80;;;1.35;;
44169;SDS011;29836;52.286;9.576;2023-03-14T06:23:06;2.67;;;1.00;;
44169;SDS011;29836;52.286;9.576;2023-03-14T06:25:34;1.10;;;0.65;;
44169;SDS011;29836;52.286;9.576;2023-03-14T06:28:00;3.53;;;0.88;;
44169;SDS011;29836;52.286;9.576;2023-03-14T06:30:26;4.10;;;0.80;;
44169;SDS011;29836;52.286;9.576;2023-03-14T06:32:51;2.58;;;0.70;;
44169;SDS011;29836;52.286;9.576;2023-03-14T06:35:17;2.92;;;0.80;;
44169;SDS011;29836;52.286;9.576;2023-03-14T06:37:43;0.50;;;0.50;;
44169;SDS011;29836;52.286;9.576;2023-03-14T06:40:09;1.40;;;0.75;;
44169;SDS011;29836;52.286;9.576;2023-03-14T06:42:35;0.70;;;0.50;;
44169;SDS011;29836;52.286;9.576;2023-03-14T06:45:01;3.58;;;0.60;;
44169;SDS011;29836;52.286;9.576;2023-03-14T06:47:27;0.98;;;0.47;;
44169;SDS011;29836;52.286;9.576;2023-03-14T06:49:53;1.42;;;0.50;;
44169;SDS011;29836;52.286;9.576;2023-03-14T06:52:19;1.00;;;0.60;;
44169;SDS011;29836;52.286;9.576;2023-03-14T06:54:44;3.40;;;0.68;;
44169;SDS011;29836;52.286;9.576;2023-03-14T06:57:10;3.60;;;0.60;;
44169;SDS011;29836;52.286;9.576;2023-03-14T06:59:35;1.35;;;0.52;;
44169;SDS011;29836;52.286;9.576;2023-03-14T07:02:01;2.10;;;0.68;;
44169;SDS011;29836;52.286;9.576;2023-03-14T07:04:26;0.90;;;0.70;;
44169;SDS011;29836;52.286;9.576;2023-03-14T07:06:52;1.23;;;0.65;;
44169;SDS011;29836;52.286;9.576;2023-03-14T07:09:17;1.25;;;0.50;;
44169;SDS011;29836;52.286;9.576;2023-03-14T07:11:43;1.52;;;0.52;;
44169;SDS011;29836;52.286;9.576;2023-03-14T07:14:08;0.68;;;0.47;;
44169;SDS011;29836;52.286;9.576;2023-03-14T07:16:34;1.08;;;0.50;;
44169;SDS011;29836;52.286;9.576;2023-03-14T07:19:00;0.70;;;0.55;;
44169;SDS011;29836;52.286;9.576;2023-03-14T07:21:26;2.42;;;0.65;;
44169;SDS011;29836;52.286;9.576;2023-03-14T07:23:52;0.60;;;0.40;;
44169;SDS011;29836;52.286;9.576;2023-03-14T07:26:18;0.82;;;0.40;;
44169;SDS011;29836;52.286;9.576;2023-03-14T07:28:43;1.10;;;0.50;;
44169;SDS011;29836;52.286;9.576;2023-03-14T07:31:09;2.13;;;0.60;;
44169;SDS011;29836;52.286;9.576;2023-03-14T07:33:34;0.40;;;0.40;;
44169;SDS011;29836;52.286;9.576;2023-03-14T07:36:00;0.30;;;0.30;;
44169;SDS011;29836;52.286;9.576;2023-03-14T07:38:26;0.50;;;0.40;;
44169;SDS011;29836;52.286;9.576;2023-03-14T07:40:59;1.20;;;0.50;;
44169;SDS011;29836;52.286;9.576;2023-03-14T07:43:25;0.52;;;0.40;;
44169;SDS011;29836;52.286;9.576;2023-03-14T07:45:51;0.50;;;0.50;;
44169;SDS011;29836;52.286;9.576;2023-03-14T07:48:16;0.30;;;0.30;;
44169;SDS011;29836;52.286;9.576;2023-03-14T07:50:42;1.17;;;0.50;;
44169;SDS011;29836;52.286;9.576;2023-03-14T07:53:07;1.17;;;0.60;;
44169;SDS011;29836;52.286;9.576;2023-03-14T07:55:33;0.52;;;0.50;;
44169;SDS011;29836;52.286;9.576;2023-03-14T07:57:58;3.17;;;0.70;;
44169;SDS011;29836;52.286;9.576;2023-03-14T08:00:24;0.70;;;0.57;;
44169;SDS011;29836;52.286;9.576;2023-03-14T08:02:50;0.30;;;0.30;;
44169;SDS011;29836;52.286;9.576;2023-03-14T08:05:15;0.90;;;0.47;;
44169;SDS011;29836;52.286;9.576;2023-03-14T08:07:41;0.47;;;0.40;;
44169;SDS011;29836;52.286;9.576;2023-03-14T08:10:07;1.30;;;0.50;;
44169;SDS011;29836;52.286;9.576;2023-03-14T08:12:33;0.68;;;0.50;;
44169;SDS011;29836;52.286;9.576;2023-03-14T08:14:59;1.48;;;0.90;;
44169;SDS011;29836;52.286;9.576;2023-03-14T08:17:24;0.75;;;0.70;;
44169;SDS011;29836;52.286;9.576;2023-03-14T08:19:50;1.20;;;0.60;;
44169;SDS011;29836;52.286;9.576;2023-03-14T08:22:15;0.57;;;0.50;;
44169;SDS011;29836;52.286;9.576;2023-03-14T08:24:41;0.75;;;0.60;;
44169;SDS011;29836;52.286;9.576;2023-03-14T08:27:07;2.72;;;0.90;;
44169;SDS011;29836;52.286;9.576;2023-03-14T08:29:32;0.30;;;0.30;;
44169;SDS011;29836;52.286;9.576;2023-03-14T08:31:58;3.30;;;1.40;;
44169;SDS011;29836;52.286;9.576;2023-03-14T08:34:23;5.03;;;2.15;;
44169;SDS011;29836;52.286;9.576;2023-03-14T08:36:49;5.40;;;1.77;;
44169;SDS011;29836;52.286;9.576;2023-03-14T08:39:15;0.47;;;0.47;;
44169;SDS011;29836;52.286;9.576;2023-03-14T08:41:40;0.60;;;0.55;;
44169;SDS011;29836;52.286;9.576;2023-03-14T08:44:07;1.77;;;1.08;;
44169;SDS011;29836;52.286;9.576;2023-03-14T08:46:33;0.85;;;0.68;;
44169;SDS011;29836;52.286;9.576;2023-03-14T08:48:59;1.38;;;0.68;;
44169;SDS011;29836;52.286;9.576;2023-03-14T08:51:25;1.20;;;0.60;;
44169;SDS011;29836;52.286;9.576;2023-03-14T08:53:50;2.28;;;0.65;;
44169;SDS011;29836;52.286;9.576;2023-03-14T08:56:16;2.58;;;0.80;;
44169;SDS011;29836;52.286;9.576;2023-03-14T08:58:42;0.60;;;0.43;;
44169;SDS011;29836;52.286;9.576;2023-03-14T09:01:08;1.58;;;0.55;;
44169;SDS011;29836;52.286;9.576;2023-03-14T09:03:35;1.02;;;0.70;;
44169;SDS011;29836;52.286;9.576;2023-03-14T09:06:07;1.05;;;0.70;;
44169;SDS011;29836;52.286;9.576;2023-03-14T09:08:34;1.65;;;0.88;;
44169;SDS011;29836;52.286;9.576;2023-03-14T09:11:00;2.20;;;0.70;;
44169;SDS011;29836;52.286;9.576;2023-03-14T09:13:26;0.75;;;0.52;;
44169;SDS011;29836;52.286;9.576;2023-03-14T09:15:52;1.23;;;0.60;;
44169;SDS011;29836;52.286;9.576;2023-03-14T09:18:18;3.88;;;0.95;;
44169;SDS011;29836;52.286;9.576;2023-03-14T09:20:44;0.50;;;0.50;;
44169;SDS011;29836;52.286;9.576;2023-03-14T09:23:09;1.65;;;0.70;;
44169;SDS011;29836;52.286;9.576;2023-03-14T09:25:35;1.85;;;0.73;;
44169;SDS011;29836;52.286;9.576;2023-03-14T09:28:00;0.55;;;0.50;;
44169;SDS011;29836;52.286;9.576;2023-03-14T09:30:26;0.95;;;0.70;;
44169;SDS011;29836;52.286;9.576;2023-03-14T09:32:51;2.08;;;0.65;;
44169;SDS011;29836;52.286;9.576;2023-03-14T09:35:17;7.57;;;0.93;;
44169;SDS011;29836;52.286;9.576;2023-03-14T09:37:43;2.22;;;0.70;;
44169;SDS011;29836;52.286;9.576;2023-03-14T09:40:11;1.10;;;0.45;;
44169;SDS011;29836;52.286;9.576;2023-03-14T09:42:40;0.50;;;0.50;;
44169;SDS011;29836;52.286;9.576;2023-03-14T09:45:07;2.58;;;0.50;;
44169;SDS011;29836;52.286;9.576;2023-03-14T09:47:43;0.50;;;0.50;;
44169;SDS011;29836;52.286;9.576;2023-03-14T09:50:13;1.98;;;0.50;;
44169;SDS011;29836;52.286;9.576;2023-03-14T09:52:40;0.50;;;0.50;;
44169;SDS011;29836;52.286;9.576;2023-03-14T09:55:11;0.50;;;0.50;;
44169;SDS011;29836;52.286;9.576;2023-03-14T09:57:40;1.45;;;0.70;;
44169;SDS011;29836;52.286;9.576;2023-03-14T10:00:15;0.93;;;0.70;;
44169;SDS011;29836;52.286;9.576;2023-03-14T10:02:45;0.75;;;0.70;;
44169;SDS011;29836;52.286;9.576;2023-03-14T10:05:18;0.60;;;0.60;;
44169;SDS011;29836;52.286;9.576;2023-03-14T10:07:46;1.10;;;0.70;;
44169;SDS011;29836;52.286;9.576;2023-03-14T10:10:19;0.70;;;0.50;;
44169;SDS011;29836;52.286;9.576;2023-03-14T10:12:47;0.50;;;0.50;;
44169;SDS011;29836;52.286;9.576;2023-03-14T10:15:22;0.77;;;0.70;;
44169;SDS011;29836;52.286;9.576;2023-03-14T10:17:58;1.05;;;0.70;;
44169;SDS011;29836;52.286;9.576;2023-03-14T10:20:29;1.20;;;0.80;;
44169;SDS011;29836;52.286;9.576;2023-03-14T10:23:00;0.95;;;0.68;;
44169;SDS011;29836;52.286;9.576;2023-03-14T10:25:27;1.02;;;0.60;;
44169;SDS011;29836;52.286;9.576;2023-03-14T10:27:54;0.50;;;0.50;;
44169;SDS011;29836;52.286;9.576;2023-03-14T10:33:00;0.80;;;0.60;;
44169;SDS011;29836;52.286;9.576;2023-03-14T10:35:34;3.72;;;0.90;;
44169;SDS011;29836;52.286;9.576;2023-03-14T10:38:00;1.65;;;0.70;;
44169;SDS011;29836;52.286;9.576;2023-03-14T10:40:28;0.80;;;0.60;;
44169;SDS011;29836;52.286;9.576;2023-03-14T10:42:57;1.05;;;0.60;;
44169;SDS011;29836;52.286;9.576;2023-03-14T10:45:31;0.98;;;0.75;;
44169;SDS011;29836;52.286;9.576;2023-03-14T10:48:16;0.90;;;0.77;;
44169;SDS011;29836;52.286;9.576;2023-03-14T10:53:21;1.48;;;0.90;;
44169;SDS011;29836;52.286;9.576;2023-03-14T10:55:47;0.90;;;0.70;;
44169;SDS011;29836;52.286;9.576;2023-03-14T10:58:20;0.60;;;0.60;;
44169;SDS011;29836;52.286;9.576;2023-03-14T11:00:57;0.70;;;0.68;;
44169;SDS011;29836;52.286;9.576;2023-03-14T11:03:31;1.45;;;0.70;;
44169;SDS011;29836;52.286;9.576;2023-03-14T11:06:04;0.57;;;0.57;;
44169;SDS011;29836;52.286;9.576;2023-03-14T11:08:40;0.60;;;0.60;;
44169;SDS011;29836;52.286;9.576;2023-03-14T11:11:13;1.40;;;0.73;;
44169;SDS011;29836;52.286;9.576;2023-03-14T11:13:55;1.02;;;0.50;;
44169;SDS011;29836;52.286;9.576;2023-03-14T11:17:00;0.93;;;0.63;;
44169;SDS011;29836;52.286;9.576;2023-03-14T11:24:49;2.00;;;0.82;;
44169;SDS011;29836;52.286;9.576;2023-03-14T11:27:35;0.52;;;0.40;;
44169;SDS011;29836;52.286;9.576;2023-03-14T11:30:17;0.60;;;0.60;;
44169;SDS011;29836;52.286;9.576;2023-03-14T11:33:14;0.77;;;0.60;;
44169;SDS011;29836;52.286;9.576;2023-03-14T11:35:49;0.60;;;0.60;;
44169;SDS011;29836;52.286;9.576;2023-03-14T11:43:58;0.75;;;0.60;;
44169;SDS011;29836;52.286;9.576;2023-03-14T11:46:31;0.52;;;0.52;;
44169;SDS011;29836;52.286;9.576;2023-03-14T11:49:06;0.60;;;0.60;;
44169;SDS011;29836;52.286;9.576;2023-03-14T11:51:59;0.95;;;0.68;;
44169;SDS011;29836;52.286;9.576;2023-03-14T11:54:43;0.90;;;0.73;;
44169;SDS011;29836;52.286;9.576;2023-03-14T11:57:17;1.10;;;0.80;;
44169;SDS011;29836;52.286;9.576;2023-03-14T11:59:47;1.27;;;0.95;;
44169;SDS011;29836;52.286;9.576;2023-03-14T12:10:49;0.60;;;0.60;;
44169;SDS011;29836;52.286;9.576;2023-03-14T12:13:18;0.93;;;0.75;;
44169;SDS011;29836;52.286;9.576;2023-03-14T12:15:49;1.15;;;0.68;;
44169;SDS011;29836;52.286;9.576;2023-03-14T12:18:21;1.17;;;0.85;;
44169;SDS011;29836;52.286;9.576;2023-03-14T12:20:54;0.50;;;0.50;;
44169;SDS011;29836;52.286;9.576;2023-03-14T12:23:25;0.63;;;0.60;;
44169;SDS011;29836;52.286;9.576;2023-03-14T12:28:36;0.95;;;0.45;;
44169;SDS011;29836;52.286;9.576;2023-03-14T12:34:01;1.00;;;0.50;;
44169;SDS011;29836;52.286;9.576;2023-03-14T12:45:14;4.10;;;0.95;;
44169;SDS011;29836;52.286;9.576;2023-03-14T12:47:41;1.60;;;1.15;;
44169;SDS011;29836;52.286;9.576;2023-03-14T12:50:16;1.45;;;0.80;;
44169;SDS011;29836;52.286;9.576;2023-03-14T12:53:07;2.75;;;1.05;;
44169;SDS011;29836;52.286;9.576;2023-03-14T12:55:58;4.07;;;0.63;;
44169;SDS011;29836;52.286;9.576;2023-03-14T12:58:47;2.70;;;1.45;;
44169;SDS011;29836;52.286;9.576;2023-03-14T13:01:53;2.72;;;1.23;;
44169;SDS011;29836;52.286;9.576;2023-03-14T13:04:32;1.90;;;0.70;;
44169;SDS011;29836;52.286;9.576;2023-03-14T13:07:01;4.50;;;0.90;;
44169;SDS011;29836;52.286;9.576;2023-03-14T13:12:11;10.30;;;0.90;;
44169;SDS011;29836;52.286;9.576;2023-03-14T13:14:48;2.78;;;1.00;;
44169;SDS011;29836;52.286;9.576;2023-03-14T13:17:20;8.35;;;0.98;;
44169;SDS011;29836;52.286;9.576;2023-03-14T13:19:52;4.65;;;0.90;;
44169;SDS011;29836;52.286;9.576;2023-03-14T13:22:22;2.53;;;1.02;;
44169;SDS011;29836;52.286;9.576;2023-03-14T13:24:50;1.80;;;1.00;;
44169;SDS011;29836;52.286;9.576;2023-03-14T13:27:34;3.22;;;1.02;;
44169;SDS011;29836;52.286;9.576;2023-03-14T13:32:48;3.17;;;0.95;;
44169;SDS011;29836;52.286;9.576;2023-03-14T13:35:57;5.32;;;1.38;;
44169;SDS011;29836;52.286;9.576;2023-03-14T13:38:13;6.78;;;1.38;;
44169;SDS011;29836;52.286;9.576;2023-03-14T13:40:45;2.55;;;1.35;;
44169;SDS011;29836;52.286;9.576;2023-03-14T13:43:13;3.03;;;1.13;;
44169;SDS011;29836;52.286;9.576;2023-03-14T13:48:15;6.13;;;1.80;;
44169;SDS011;29836;52.286;9.576;2023-03-14T13:51:24;8.70;;;1.38;;
44169;SDS011;29836;52.286;9.576;2023-03-14T13:53:50;4.72;;;1.48;;
44169;SDS011;29836;52.286;9.576;2023-03-14T13:56:24;6.63;;;1.40;;
44169;SDS011;29836;52.286;9.576;2023-03-14T13:58:52;4.88;;;1.67;;
44169;SDS011;29836;52.286;9.576;2023-03-14T14:01:31;2.33;;;1.40;;
44169;SDS011;29836;52.286;9.576;2023-03-14T14:04:07;4.65;;;1.38;;
44169;SDS011;29836;52.286;9.576;2023-03-14T14:06:39;2.10;;;1.20;;
44169;SDS011;29836;52.286;9.576;2023-03-14T14:11:43;6.35;;;1.80;;
44169;SDS011;29836;52.286;9.576;2023-03-14T14:14:47;4.88;;;1.70;;
44169;SDS011;29836;52.286;9.576;2023-03-14T14:17:09;4.15;;;1.20;;
44169;SDS011;29836;52.286;9.576;2023-03-14T14:19:37;15.50;;;1.30;;
44169;SDS011;29836;52.286;9.576;2023-03-14T14:22:04;6.03;;;1.85;;
44169;SDS011;29836;52.286;9.576;2023-03-14T14:24:31;3.75;;;1.88;;
44169;SDS011;29836;52.286;9.576;2023-03-14T14:27:08;13.15;;;2.15;;
44169;SDS011;29836;52.286;9.576;2023-03-14T14:29:40;5.18;;;1.88;;
44169;SDS011;29836;52.286;9.576;2023-03-14T14:34:37;6.75;;;1.30;;
44169;SDS011;29836;52.286;9.576;2023-03-14T14:37:22;7.72;;;1.75;;
44169;SDS011;29836;52.286;9.576;2023-03-14T14:39:59;7.63;;;1.40;;
44169;SDS011;29836;52.286;9.576;2023-03-14T14:42:32;4.53;;;1.42;;
44169;SDS011;29836;52.286;9.576;2023-03-14T14:44:59;9.15;;;1.85;;
44169;SDS011;29836;52.286;9.576;2023-03-14T14:47:27;5.63;;;1.67;;
44169;SDS011;29836;52.286;9.576;2023-03-14T14:49:54;8.02;;;1.58;;
44169;SDS011;29836;52.286;9.576;2023-03-14T14:55:01;9.60;;;1.88;;
44169;SDS011;29836;52.286;9.576;2023-03-14T14:57:29;4.15;;;1.55;;
44169;SDS011;29836;52.286;9.576;2023-03-14T15:00:06;3.92;;;1.02;;
44169;SDS011;29836;52.286;9.576;2023-03-14T15:02:44;12.40;;;1.58;;
44169;SDS011;29836;52.286;9.576;2023-03-14T15:05:19;5.15;;;1.52;;
44169;SDS011;29836;52.286;9.576;2023-03-14T15:07:46;2.65;;;1.33;;
44169;SDS011;29836;52.286;9.576;2023-03-14T15:10:16;4.55;;;1.90;;
44169;SDS011;29836;52.286;9.576;2023-03-14T15:12:46;3.78;;;1.63;;
44169;SDS011;29836;52.286;9.576;2023-03-14T15:15:12;7.15;;;2.30;;
44169;SDS011;29836;52.286;9.576;2023-03-14T15:17:38;10.27;;;2.17;;
44169;SDS011;29836;52.286;9.576;2023-03-14T15:20:05;5.65;;;2.17;;
44169;SDS011;29836;52.286;9.576;2023-03-14T15:22:35;8.02;;;2.03;;
44169;SDS011;29836;52.286;9.576;2023-03-14T15:25:01;8.80;;;1.63;;
44169;SDS011;29836;52.286;9.576;2023-03-14T15:27:26;7.30;;;1.35;;
44169;SDS011;29836;52.286;9.576;2023-03-14T15:29:55;6.30;;;2.17;;
44169;SDS011;29836;52.286;9.576;2023-03-14T15:32:21;7.75;;;1.73;;
44169;SDS011;29836;52.286;9.576;2023-03-14T15:34:46;3.28;;;1.85;;
44169;SDS011;29836;52.286;9.576;2023-03-14T15:37:13;7.15;;;1.52;;
44169;SDS011;29836;52.286;9.576;2023-03-14T15:39:41;5.80;;;1.27;;
44169;SDS011;29836;52.286;9.576;2023-03-14T15:42:07;2.97;;;0.98;;
44169;SDS011;29836;52.286;9.576;2023-03-14T15:44:33;4.05;;;1.40;;
44169;SDS011;29836;52.286;9.576;2023-03-14T15:46:59;3.80;;;0.80;;
44169;SDS011;29836;52.286;9.576;2023-03-14T15:49:24;2.45;;;1.02;;
44169;SDS011;29836;52.286;9.576;2023-03-14T15:51:50;3.42;;;1.10;;
44169;SDS011;29836;52.286;9.576;2023-03-14T15:54:15;5.22;;;1.35;;
44169;SDS011;29836;52.286;9.576;2023-03-14T15:56:41;1.77;;;0.80;;
44169;SDS011;29836;52.286;9.576;2023-03-14T15:59:06;1.42;;;0.82;;
44169;SDS011;29836;52.286;9.576;2023-03-14T16:01:32;10.48;;;1.38;;